createdAt,value
2019-04-20T00:00:44.932Z,103158.31
2019-04-20T00:03:10.239Z,103150.40
2019-04-20T00:05:39.537Z,103152.23
2019-04-20T00:08:14.995Z,103151.81
2019-04-20T00:10:48.644Z,103148.33
2019-04-20T00:13:20.985Z,103146.58
2019-04-20T00:15:36.909Z,103149.28
2019-04-20T00:18:07.154Z,103143.12
2019-04-20T00:20:37.170Z,103140.52
2019-04-20T00:23:12.453Z,103148.08
2019-04-20T00:26:09.159Z,103141.03
2019-04-20T00:28:46.061Z,103146.81
2019-04-20T00:31:13.840Z,103141.98
2019-04-20T00:33:41.013Z,103136.67
2019-04-20T00:35:55.490Z,103139.80
2019-04-20T00:38:29.082Z,103137.56
2019-04-20T00:41:01.027Z,103130.50
2019-04-20T00:43:29.135Z,103138.46
2019-04-20T00:46:01.157Z,103141.59
2019-04-20T00:48:33.867Z,103131.87
2019-04-20T00:51:11.548Z,103134.08
2019-04-20T00:53:30.303Z,103130.11
2019-04-20T00:55:50.797Z,103126.61
2019-04-20T00:58:27.052Z,103127.48
2019-04-20T01:01:07.371Z,103124.84
2019-04-20T01:03:33.977Z,103132.38
2019-04-20T01:06:30.027Z,103129.29
2019-04-20T01:09:03.371Z,103123.11
2019-04-20T01:11:39.481Z,103127.58
2019-04-20T01:14:06.020Z,103121.41
2019-04-20T01:16:40.056Z,103122.27
2019-04-20T01:18:59.827Z,103122.29
2019-04-20T01:21:31.716Z,103123.19
2019-04-20T01:24:02.908Z,103123.66
2019-04-20T01:26:27.795Z,103125.89
2019-04-20T01:29:08.774Z,103120.17
2019-04-20T01:31:35.451Z,103130.77
2019-04-20T01:34:03.102Z,103129.91
2019-04-20T01:36:41.406Z,103128.14
2019-04-20T01:39:02.746Z,103125.94
2019-04-20T01:41:22.757Z,103128.63
2019-04-20T01:43:52.307Z,103126.00
2019-04-20T01:46:23.985Z,103126.45
2019-04-20T01:48:50.640Z,103128.67
2019-04-20T01:51:26.339Z,103125.60
2019-04-20T01:54:06.541Z,103127.35
2019-04-20T01:56:36.206Z,103124.28
2019-04-20T01:59:19.972Z,103124.72
2019-04-20T02:01:59.291Z,103121.19
2019-04-20T02:04:32.641Z,103125.14
2019-04-20T02:06:59.668Z,103120.72
2019-04-20T02:09:28.019Z,103126.03
2019-04-20T02:11:55.716Z,103123.84
2019-04-20T02:14:32.213Z,103127.38
2019-04-20T02:17:04.271Z,103128.25
2019-04-20T02:19:34.441Z,103121.19
2019-04-20T02:22:03.967Z,103133.55
2019-04-20T02:24:21.682Z,103123.83
2019-04-20T02:26:51.548Z,103127.82
2019-04-20T02:29:39.867Z,103125.14
2019-04-20T02:32:23.771Z,103130.88
2019-04-20T02:34:59.805Z,103133.09
2019-04-20T02:37:48.645Z,103126.92
2019-04-20T02:40:12.908Z,103128.66
2019-04-20T02:42:46.470Z,103126.44
2019-04-20T02:47:41.283Z,103127.78
2019-04-20T02:50:06.983Z,103129.08
2019-04-20T02:52:42.544Z,103124.66
2019-04-20T03:00:05.491Z,103127.75
2019-04-20T03:02:19.488Z,103128.61
2019-04-20T03:04:40.227Z,103127.75
2019-04-20T03:07:15.644Z,103127.30
2019-04-20T03:09:48.523Z,103120.23
2019-04-20T03:12:23.730Z,103125.50
2019-04-20T03:14:39.373Z,103122.88
2019-04-20T03:17:23.429Z,103116.22
2019-04-20T03:19:41.101Z,103114.48
2019-04-20T03:22:19.166Z,103105.63
2019-04-20T03:24:59.546Z,103114.44
2019-04-20T03:27:32.500Z,103113.53
2019-04-20T03:30:26.084Z,103108.67
2019-04-20T03:33:05.955Z,103112.16
2019-04-20T03:35:20.020Z,103124.93
2019-04-20T03:37:52.637Z,103113.47
2019-04-20T03:40:11.246Z,103113.03
2019-04-20T03:42:22.295Z,103118.31
2019-04-20T03:44:58.683Z,103118.76
2019-04-20T03:47:31.438Z,103118.27
2019-04-20T03:50:10.735Z,103128.77
2019-04-20T03:52:43.394Z,103117.75
2019-04-20T03:55:43.121Z,103117.30
2019-04-20T03:58:24.277Z,103114.66
2019-04-20T04:01:05.111Z,103119.94
2019-04-20T04:03:54.754Z,103117.72
2019-04-20T04:06:09.599Z,103081.48
2019-04-20T04:08:36.404Z,103125.64
2019-04-20T04:11:17.515Z,103126.06
2019-04-20T04:13:27.056Z,103122.07
2019-04-20T04:16:02.834Z,103123.82
2019-04-20T04:18:31.875Z,103128.63
2019-04-20T04:21:02.916Z,103129.92
2019-04-20T04:23:43.184Z,103128.57
2019-04-20T04:26:08.571Z,103130.33
2019-04-20T04:28:37.419Z,103127.70
2019-04-20T04:33:53.274Z,103132.11
2019-04-20T04:36:08.923Z,103124.63
2019-04-20T04:38:42.383Z,103135.20
2019-04-20T04:41:16.722Z,103137.43
2019-04-20T04:43:37.134Z,103133.91
2019-04-20T04:45:46.922Z,103132.15
2019-04-20T04:48:23.801Z,103135.25
2019-04-20T04:50:52.775Z,103137.02
2019-04-20T04:53:27.149Z,103142.75
2019-04-20T04:55:50.812Z,103144.08
2019-04-20T04:58:12.782Z,103151.09
2019-04-20T05:00:42.561Z,103149.81
2019-04-20T05:03:28.482Z,103151.17
2019-04-20T05:06:18.706Z,103152.52
2019-04-20T05:08:36.836Z,103150.79
2019-04-20T05:10:58.415Z,103152.56
2019-04-20T05:13:38.007Z,103162.31
2019-04-20T05:16:11.063Z,103160.61
2019-04-20T05:18:51.240Z,103163.70
2019-04-20T05:21:38.879Z,103157.60
2019-04-20T05:24:10.052Z,103158.94
2019-04-20T05:26:49.344Z,103154.11
2019-04-20T05:29:07.939Z,103161.67
2019-04-20T05:31:34.034Z,103158.15
2019-04-20T05:34:20.609Z,103156.42
2019-04-20T05:36:46.230Z,103156.88
2019-04-20T05:39:23.635Z,103156.87
2019-04-20T05:41:42.030Z,103150.73
2019-04-20T05:44:25.531Z,103162.20
2019-04-20T05:47:02.817Z,103156.05
2019-04-20T05:49:31.690Z,103157.81
2019-04-20T05:51:54.702Z,103159.13
2019-04-20T05:54:25.541Z,103157.81
2019-04-20T05:56:56.316Z,103161.34
2019-04-20T05:59:28.367Z,103164.88
2019-04-20T06:01:58.796Z,103168.84
2019-04-20T06:04:44.537Z,103163.95
2019-04-20T06:06:55.377Z,103161.29
2019-04-20T06:09:29.558Z,103171.03
2019-04-20T06:12:08.964Z,103167.93
2019-04-20T06:14:36.773Z,103171.00
2019-04-20T06:17:27.067Z,103171.84
2019-04-20T06:19:54.634Z,103170.94
2019-04-20T06:22:41.414Z,103176.66
2019-04-20T06:25:31.146Z,103177.91
2019-04-20T06:27:45.175Z,103178.30
2019-04-20T06:30:11.025Z,103176.05
2019-04-20T06:33:33.759Z,103175.11
2019-04-20T06:36:13.966Z,103177.27
2019-04-20T06:38:38.699Z,103172.29
2019-04-20T06:40:59.503Z,103170.41
2019-04-20T06:43:11.119Z,103169.02
2019-04-20T06:45:51.871Z,103173.38
2019-04-20T06:48:22.175Z,103175.98
2019-04-20T06:50:39.056Z,103175.08
2019-04-20T06:53:31.864Z,103176.73
2019-04-20T06:56:06.751Z,103181.95
2019-04-20T06:58:47.844Z,103183.11
2019-04-20T07:01:04.182Z,103181.22
2019-04-20T07:03:46.721Z,103187.72
2019-04-20T07:06:06.366Z,103186.27
2019-04-20T07:11:04.271Z,103178.86
2019-04-20T07:13:19.285Z,103181.80
2019-04-20T07:15:57.213Z,103179.39
2019-04-20T07:18:40.585Z,103174.73
2019-04-20T07:21:05.320Z,103168.38
2019-04-20T07:23:57.497Z,103169.38
2019-04-20T07:26:12.803Z,103166.95
2019-04-20T07:28:41.376Z,103166.27
2019-04-20T07:31:01.726Z,103167.94
2019-04-20T07:33:32.148Z,103170.95
2019-04-20T07:36:04.197Z,103171.63
2019-04-20T07:38:34.307Z,103178.42
2019-04-20T07:41:00.884Z,103179.05
2019-04-20T07:43:29.952Z,103178.41
2019-04-20T07:46:04.925Z,103176.73
2019-04-20T07:48:26.407Z,103178.95
2019-04-20T07:50:48.684Z,103176.23
2019-04-20T07:53:21.395Z,103171.71
2019-04-20T07:55:53.977Z,103175.55
2019-04-20T07:58:15.578Z,103179.00
2019-04-20T08:01:02.537Z,103173.48
2019-04-20T08:05:55.197Z,103161.61
2019-04-20T08:08:28.129Z,103155.07
2019-04-20T08:11:00.267Z,103155.03
2019-04-20T08:13:40.350Z,103160.10
2019-04-20T08:16:06.697Z,103150.14
2019-04-20T08:21:06.400Z,103151.00
2019-04-20T08:23:30.007Z,103156.64
2019-04-20T08:25:52.225Z,103148.08
2019-04-20T08:28:22.686Z,103149.84
2019-04-20T08:31:17.852Z,103148.44
2019-04-20T08:34:01.855Z,103146.25
2019-04-20T08:36:22.744Z,103144.36
2019-04-20T08:41:17.030Z,103146.20
2019-04-20T08:44:09.834Z,103148.62
2019-04-20T08:46:22.707Z,103141.04
2019-04-20T08:48:46.345Z,103142.86
2019-04-20T08:51:14.569Z,103142.05
2019-04-20T08:53:50.727Z,103134.82
2019-04-20T08:56:09.880Z,103135.78
2019-04-20T08:58:24.847Z,103125.93
2019-04-20T09:00:58.794Z,103133.16
2019-04-20T09:03:29.084Z,103127.03
2019-04-20T09:06:01.019Z,103124.73
2019-04-20T09:08:28.093Z,103130.94
2019-04-20T09:11:09.914Z,103127.57
2019-04-20T09:13:29.972Z,103126.66
2019-04-20T09:15:49.424Z,103121.34
2019-04-20T09:18:36.366Z,103123.89
2019-04-20T09:21:01.134Z,103122.59
2019-04-20T09:23:42.391Z,103123.89
2019-04-20T09:26:29.370Z,103120.90
2019-04-20T09:28:36.393Z,103114.85
2019-04-20T09:31:15.333Z,103119.48
2019-04-20T09:33:57.075Z,103119.51
2019-04-20T09:36:29.202Z,103111.19
2019-04-20T09:39:10.388Z,103103.91
2019-04-20T09:41:54.634Z,103108.47
2019-04-20T09:44:02.793Z,103103.30
2019-04-20T09:46:39.348Z,103109.38
2019-04-20T09:49:13.128Z,103102.72
2019-04-20T09:54:18.908Z,103098.80
2019-04-20T09:56:48.386Z,103104.30
2019-04-20T09:59:16.834Z,103092.20
2019-04-20T10:01:35.091Z,103104.23
2019-04-20T10:03:57.256Z,103094.31
2019-04-20T10:06:30.641Z,103088.38
2019-04-20T10:08:59.792Z,103091.87
2019-04-20T10:11:25.491Z,103087.61
2019-04-20T10:13:54.522Z,103088.79
2019-04-20T10:16:23.919Z,103087.14
2019-04-20T10:18:54.963Z,103075.45
2019-04-20T10:21:23.621Z,103072.31
2019-04-20T10:23:52.493Z,103070.51
2019-04-20T10:26:20.926Z,103078.44
2019-04-20T10:28:50.177Z,103069.41
2019-04-20T10:31:20.378Z,103068.50
2019-04-20T10:33:49.353Z,103064.95
2019-04-20T10:36:26.198Z,103068.33
2019-04-20T10:38:55.436Z,103061.55
2019-04-20T10:41:36.017Z,103061.02
2019-04-20T10:43:53.993Z,103051.23
2019-04-20T10:46:23.239Z,103057.17
2019-04-20T10:48:54.459Z,103056.80
2019-04-20T10:51:21.867Z,103052.82
2019-04-20T10:53:51.129Z,103053.33
2019-04-20T10:56:21.343Z,103049.34
2019-04-20T10:58:49.842Z,103045.87
2019-04-20T11:01:19.925Z,103040.89
2019-04-20T11:03:48.330Z,103036.80
2019-04-20T11:06:18.648Z,103039.14
2019-04-20T11:08:46.947Z,103042.16
2019-04-20T11:11:23.873Z,103039.23
2019-04-20T11:13:45.670Z,103029.00
2019-04-20T11:16:14.881Z,103027.34
2019-04-20T11:18:45.208Z,103021.31
2019-04-20T11:21:13.461Z,103023.98
2019-04-20T11:23:42.705Z,103018.62
2019-04-20T11:26:11.967Z,103020.96
2019-04-20T11:28:42.016Z,103016.23
2019-04-20T11:31:10.676Z,103019.45
2019-04-20T11:33:40.407Z,103013.98
2019-04-20T11:36:09.435Z,103011.84
2019-04-20T11:38:38.711Z,103007.78
2019-04-20T11:41:16.532Z,103009.41
2019-04-20T11:43:37.705Z,102996.97
2019-04-20T11:46:06.899Z,102998.38
2019-04-20T11:48:37.169Z,102999.03
2019-04-20T11:51:05.527Z,102990.45
2019-04-20T11:53:34.387Z,102996.78
2019-04-20T11:56:06.703Z,102980.98
2019-04-20T11:58:33.202Z,102981.84
2019-04-20T12:01:12.186Z,102982.05
2019-04-20T12:03:47.417Z,102981.72
2019-04-20T12:06:07.036Z,102979.14
2019-04-20T12:08:36.922Z,102970.67
2019-04-20T12:11:18.772Z,102960.95
2019-04-20T12:13:32.272Z,102960.62
2019-04-20T12:16:01.623Z,102964.53
2019-04-20T12:18:31.685Z,102952.20
2019-04-20T12:21:00.855Z,102946.84
2019-04-20T12:23:30.601Z,102951.52
2019-04-20T12:25:59.807Z,102944.62
2019-04-20T12:28:29.481Z,102944.68
2019-04-20T12:31:04.019Z,102945.27
2019-04-20T12:33:26.559Z,102946.13
2019-04-20T12:35:56.283Z,102940.16
2019-04-20T12:38:25.291Z,102940.41
2019-04-20T12:40:55.587Z,102935.30
2019-04-20T12:43:23.745Z,102932.69
2019-04-20T12:45:53.831Z,102938.19
2019-04-20T12:48:22.264Z,102930.02
2019-04-20T12:50:51.506Z,102931.50
2019-04-20T12:53:20.859Z,102932.21
2019-04-20T12:55:50.759Z,102928.56
2019-04-20T12:58:20.720Z,102924.34
2019-04-20T13:00:49.607Z,102920.06
2019-04-20T13:03:19.058Z,102916.60
2019-04-20T13:05:47.851Z,102911.84
2019-04-20T13:08:23.251Z,102909.10
2019-04-20T13:10:48.773Z,102903.75
2019-04-20T13:13:23.124Z,102899.40
2019-04-20T13:16:12.246Z,102900.45
2019-04-20T13:18:45.350Z,102900.40
2019-04-20T13:21:17.062Z,102888.37
2019-04-20T13:23:47.067Z,102883.05
2019-04-20T13:26:16.147Z,102878.89
2019-04-20T13:28:44.890Z,102881.99
2019-04-20T13:31:15.613Z,102874.66
2019-04-20T13:33:43.517Z,102879.41
2019-04-20T13:36:12.771Z,102876.47
2019-04-20T13:38:42.163Z,102880.66
2019-04-20T13:41:11.704Z,102875.11
2019-04-20T13:43:41.849Z,102873.82
2019-04-20T13:46:11.064Z,102862.94
2019-04-20T13:48:39.287Z,102861.39
2019-04-20T13:51:09.844Z,102857.82
2019-04-20T13:53:38.970Z,102855.41
2019-04-20T13:56:07.836Z,102854.41
2019-04-20T13:58:59.161Z,102854.52
2019-04-20T14:01:48.535Z,102851.52
2019-04-20T14:04:18.968Z,102848.67
2019-04-20T14:06:48.668Z,102841.62
2019-04-20T14:09:19.140Z,102839.48
2019-04-20T14:11:47.533Z,102836.67
2019-04-20T14:14:17.187Z,102825.74
2019-04-20T14:16:47.286Z,102824.65
2019-04-20T14:19:15.101Z,102830.39
2019-04-20T14:21:44.378Z,102820.48
2019-04-20T14:24:14.951Z,102820.59
2019-04-20T14:26:44.529Z,102826.61
2019-04-20T14:29:12.793Z,102820.20
2019-04-20T14:31:41.852Z,102815.29
2019-04-20T14:34:11.002Z,102811.39
2019-04-20T14:36:41.146Z,102808.37
2019-04-20T14:39:10.127Z,102805.76
2019-04-20T14:41:40.223Z,102800.51
2019-04-20T14:44:08.024Z,102811.07
2019-04-20T14:46:37.840Z,102807.02
2019-04-20T14:49:06.962Z,102807.76
2019-04-20T14:51:35.770Z,102803.10
2019-04-20T14:54:05.524Z,102797.33
2019-04-20T14:56:35.680Z,102792.28
2019-04-20T14:59:07.518Z,102787.95
2019-04-20T15:01:55.007Z,102789.80
2019-04-20T15:04:26.757Z,102790.45
2019-04-20T15:06:54.745Z,102785.89
2019-04-20T15:09:22.909Z,102781.81
2019-04-20T15:11:52.735Z,102783.74
2019-04-20T15:14:22.689Z,102782.47
2019-04-20T15:16:50.939Z,102777.94
2019-04-20T15:19:27.546Z,102773.67
2019-04-20T15:21:57.764Z,102777.88
2019-04-20T15:24:27.397Z,102774.34
2019-04-20T15:26:56.455Z,102775.78
2019-04-20T15:29:26.334Z,102781.27
2019-04-20T15:31:54.353Z,102772.95
2019-04-20T15:34:24.770Z,102764.44
2019-04-20T15:36:53.976Z,102764.34
2019-04-20T15:39:23.237Z,102768.31
2019-04-20T15:41:51.578Z,102776.20
2019-04-20T15:44:21.575Z,102767.51
2019-04-20T15:46:51.081Z,102766.97
2019-04-20T15:49:19.866Z,102760.16
2019-04-20T15:51:49.956Z,102759.66
2019-04-20T15:54:17.897Z,102753.29
2019-04-20T15:56:52.446Z,102757.77
2019-04-20T15:59:16.794Z,102764.93
2019-04-20T16:01:49.317Z,102750.04
2019-04-20T16:04:44.882Z,102765.84
2019-04-20T16:07:13.056Z,102761.93
2019-04-20T16:09:42.131Z,102759.09
2019-04-20T16:12:11.046Z,102755.77
2019-04-20T16:14:41.649Z,102757.03
2019-04-20T16:17:12.305Z,102761.87
2019-04-20T16:19:50.624Z,102748.97
2019-04-20T16:22:08.010Z,102750.81
2019-04-20T16:24:40.875Z,102751.19
2019-04-20T16:27:15.803Z,102752.00
2019-04-20T16:29:45.109Z,102749.63
2019-04-20T16:32:14.482Z,102745.25
2019-04-20T16:34:44.547Z,102747.57
2019-04-20T16:37:13.014Z,102746.41
2019-04-20T16:39:42.869Z,102738.38
2019-04-20T16:42:14.142Z,102742.18
2019-04-20T16:44:43.091Z,102735.31
2019-04-20T16:47:12.305Z,102735.77
2019-04-20T16:49:41.166Z,102730.80
2019-04-20T16:52:10.589Z,102736.23
2019-04-20T16:54:39.764Z,102729.09
2019-04-20T16:57:11.430Z,102734.36
2019-04-20T16:59:40.119Z,102732.89
2019-04-20T17:02:07.063Z,102726.75
2019-04-20T17:04:37.493Z,102726.11
2019-04-20T17:07:20.663Z,102726.69
2019-04-20T17:09:49.865Z,102723.19
2019-04-20T17:12:19.605Z,102734.92
2019-04-20T17:14:49.502Z,102722.23
2019-04-20T17:17:18.157Z,102727.71
2019-04-20T17:19:47.587Z,102720.66
2019-04-20T17:22:17.298Z,102729.80
2019-04-20T17:24:47.266Z,102726.50
2019-04-20T17:27:30.728Z,102724.28
2019-04-20T17:30:21.156Z,102726.17
2019-04-20T17:32:47.489Z,102725.17
2019-04-20T17:35:28.241Z,102722.95
2019-04-20T17:37:48.659Z,102724.58
2019-04-20T17:40:38.182Z,102722.86
2019-04-20T17:42:53.139Z,102724.94
2019-04-20T17:45:27.301Z,102722.78
2019-04-20T17:48:00.964Z,102728.31
2019-04-20T17:50:30.351Z,102729.05
2019-04-20T17:52:59.387Z,102730.22
2019-04-20T17:55:24.582Z,102728.26
2019-04-20T17:57:44.877Z,102731.27
2019-04-20T18:00:38.395Z,102735.09
2019-04-20T18:03:18.588Z,102731.84
2019-04-20T18:05:55.778Z,102736.16
2019-04-20T18:08:27.091Z,102733.19
2019-04-20T18:10:47.493Z,102730.70
2019-04-20T18:13:07.990Z,102740.42
2019-04-20T18:15:47.224Z,102734.13
2019-04-20T18:18:50.751Z,102736.98
2019-04-20T18:21:26.656Z,102740.79
2019-04-20T18:23:56.228Z,102742.10
2019-04-20T18:26:45.571Z,102741.48
2019-04-20T18:29:13.473Z,102740.75
2019-04-20T18:31:39.722Z,102742.65
2019-04-20T18:34:17.979Z,102735.58
2019-04-20T18:36:44.651Z,102738.86
2019-04-20T18:39:13.727Z,102740.70
2019-04-20T18:41:46.494Z,102748.19
2019-04-20T18:44:10.794Z,102749.19
2019-04-20T18:47:00.720Z,102752.31
2019-04-20T18:49:24.217Z,102760.00
2019-04-20T18:51:37.720Z,102759.59
2019-04-20T18:54:13.678Z,102768.13
2019-04-20T18:56:43.187Z,102754.19
2019-04-20T18:59:05.415Z,102759.44
2019-04-20T19:01:39.560Z,102758.85
2019-04-20T19:04:03.863Z,102759.60
2019-04-20T19:06:34.042Z,102751.09
2019-04-20T19:09:02.940Z,102759.87
2019-04-20T19:11:37.551Z,102753.40
2019-04-20T19:14:28.605Z,102760.80
2019-04-20T19:17:00.170Z,102755.35
2019-04-20T19:19:37.469Z,102758.98
2019-04-20T19:21:58.394Z,102758.01
2019-04-20T19:24:30.981Z,102762.78
2019-04-20T19:27:02.981Z,102762.13
2019-04-20T19:29:32.746Z,102749.87
2019-04-20T19:32:11.527Z,102759.91
2019-04-20T19:34:38.068Z,102762.80
2019-04-20T19:37:07.259Z,102767.02
2019-04-20T19:39:40.244Z,102757.83
2019-04-20T19:42:02.931Z,102762.51
2019-04-20T19:44:32.573Z,102758.59
2019-04-20T19:47:10.703Z,102759.60
2019-04-20T19:49:32.687Z,102757.50
2019-04-20T19:52:20.207Z,102759.30
2019-04-20T19:54:41.466Z,102754.15
2019-04-20T19:57:01.366Z,102761.03
2019-04-20T19:59:26.349Z,102751.50
2019-04-20T20:01:47.684Z,102754.30
2019-04-20T20:04:15.760Z,102754.00
2019-04-20T20:06:49.675Z,102756.83
2019-04-20T20:09:16.048Z,102754.75
2019-04-20T20:11:44.972Z,102758.08
2019-04-20T20:14:16.960Z,102760.96
2019-04-20T20:16:59.840Z,102752.36
2019-04-20T20:19:28.105Z,102754.84
2019-04-20T20:22:00.387Z,102754.58
2019-04-20T20:24:14.273Z,102757.42
2019-04-20T20:26:48.735Z,102754.03
2019-04-20T20:29:19.726Z,102757.36
2019-04-20T20:31:52.803Z,102758.03
2019-04-20T20:34:17.088Z,102755.55
2019-04-20T20:36:47.172Z,102757.02
2019-04-20T20:39:15.973Z,102757.11
2019-04-20T20:41:49.266Z,102756.78
2019-04-20T20:44:15.709Z,102760.89
2019-04-20T20:46:48.765Z,102761.61
2019-04-20T20:49:25.306Z,102764.92
2019-04-20T20:51:54.177Z,102760.61
2019-04-20T20:54:17.404Z,102763.84
2019-04-20T20:56:37.216Z,102759.94
2019-04-20T20:59:11.221Z,102759.17
2019-04-20T21:01:41.329Z,102766.40
2019-04-20T21:04:01.007Z,102761.70
2019-04-20T21:06:30.683Z,102768.03
2019-04-20T21:09:01.339Z,102766.33
2019-04-20T21:11:32.468Z,102759.75
2019-04-20T21:13:59.285Z,102763.81
2019-04-20T21:16:31.914Z,102759.88
2019-04-20T21:19:14.674Z,102758.17
2019-04-20T21:21:38.750Z,102754.66
2019-04-20T21:24:07.108Z,102765.84
2019-04-20T21:26:35.045Z,102763.66
2019-04-20T21:28:59.686Z,102759.88
2019-04-20T21:31:29.668Z,102751.66
2019-04-20T21:34:02.895Z,102750.44
2019-04-20T21:36:29.969Z,102755.37
2019-04-20T21:38:58.015Z,102751.46
2019-04-20T21:41:27.453Z,102752.45
2019-04-20T21:43:55.979Z,102756.97
2019-04-20T21:46:24.875Z,102755.79
2019-04-20T21:49:07.199Z,102746.67
2019-04-20T21:51:32.238Z,102741.02
2019-04-20T21:53:55.251Z,102738.44
2019-04-20T21:56:21.923Z,102749.63
2019-04-20T21:58:57.515Z,102740.45
2019-04-20T22:01:27.194Z,102733.91
2019-04-20T22:03:50.287Z,102740.23
2019-04-20T22:06:18.443Z,102743.95
2019-04-20T22:08:52.886Z,102738.42
2019-04-20T22:11:17.865Z,102742.98
2019-04-20T22:13:49.058Z,102736.86
2019-04-20T22:16:18.145Z,102741.38
2019-04-20T22:18:51.223Z,102733.92
2019-04-20T22:21:22.574Z,102730.46
2019-04-20T22:23:59.826Z,102730.11
2019-04-20T22:26:26.580Z,102723.12
2019-04-20T22:28:42.401Z,102719.20
2019-04-20T22:31:11.944Z,102715.36
2019-04-20T22:33:43.052Z,102714.02
2019-04-20T22:36:11.323Z,102712.33
2019-04-20T22:39:05.330Z,102708.81
2019-04-20T22:41:34.568Z,102706.20
2019-04-20T22:44:11.843Z,102700.89
2019-04-20T22:46:35.706Z,102703.60
2019-04-20T22:49:22.003Z,102704.98
2019-04-20T22:51:46.165Z,102708.61
2019-04-20T22:54:16.945Z,102713.56
2019-04-20T22:56:44.084Z,102703.45
2019-04-20T22:59:06.251Z,102702.23
2019-04-20T23:01:38.760Z,102703.65
2019-04-20T23:03:59.032Z,102701.52
2019-04-20T23:06:35.456Z,102694.66
2019-04-20T23:09:03.158Z,102698.32
2019-04-20T23:11:29.104Z,102694.84
2019-04-20T23:13:56.185Z,102694.59
2019-04-20T23:16:27.925Z,102695.55
2019-04-20T23:18:54.150Z,102697.75
2019-04-20T23:21:23.869Z,102687.17
2019-04-20T23:23:53.699Z,102689.45
2019-04-20T23:26:27.933Z,102680.22
2019-04-20T23:28:55.465Z,102681.09
2019-04-20T23:31:24.845Z,102679.77
2019-04-20T23:33:49.907Z,102681.13
2019-04-20T23:36:31.856Z,102682.03
2019-04-20T23:38:52.675Z,102683.86
2019-04-20T23:41:19.607Z,102679.01
2019-04-20T23:43:54.903Z,102672.45
2019-04-20T23:46:29.360Z,102671.63
2019-04-20T23:49:20.013Z,102673.89
2019-04-20T23:52:05.497Z,102673.03
2019-04-20T23:54:18.551Z,102665.60
2019-04-20T23:56:41.657Z,102658.59
2019-04-20T23:59:10.680Z,102668.39
